createdAt,value
2023-06-02T07:49:11.907Z,99.99
2023-06-02T10:54:58.442Z,99.99
2023-06-02T10:55:58.392Z,99.99
2023-06-02T10:56:58.368Z,99.99
2023-06-02T10:57:58.361Z,99.99
2023-06-02T10:58:58.342Z,99.99
2023-06-02T10:59:58.316Z,99.99
2023-06-02T11:00:58.349Z,99.99
2023-06-02T11:01:58.282Z,99.99
2023-06-02T11:02:58.339Z,99.99
2023-06-02T11:03:58.286Z,99.99
2023-06-02T11:04:58.237Z,99.99
2023-06-02T11:05:58.235Z,99.99
2023-06-02T11:06:58.215Z,99.99
2023-06-02T11:07:58.201Z,99.99
2023-06-02T11:08:58.180Z,99.99
2023-06-02T11:09:58.173Z,99.99
2023-06-02T11:10:58.165Z,99.99
2023-06-02T11:11:58.132Z,99.99
2023-06-02T11:12:58.119Z,99.99
2023-06-02T11:13:58.186Z,99.99
2023-06-02T11:14:58.097Z,99.99
2023-06-02T11:15:58.117Z,99.99
2023-06-02T11:16:58.070Z,99.74
2023-06-02T11:17:58.067Z,99.73
2023-06-02T11:18:58.051Z,99.99
2023-06-02T11:19:58.051Z,99.99
2023-06-02T11:20:58.044Z,99.99
2023-06-02T11:21:58.089Z,99.99
2023-06-02T11:22:57.980Z,99.88
2023-06-02T11:23:57.998Z,99.98
2023-06-02T11:24:57.947Z,99.73
2023-06-02T11:25:57.932Z,99.54
2023-06-02T11:26:57.961Z,99.73
2023-06-02T11:27:57.929Z,99.99
2023-06-02T11:28:57.893Z,99.99
2023-06-02T11:29:57.891Z,99.99
2023-06-02T11:30:57.882Z,99.99
2023-06-02T11:31:57.854Z,99.99
2023-06-02T11:32:57.876Z,99.99
2023-06-02T11:33:57.814Z,99.99
2023-06-02T11:34:57.802Z,99.99
2023-06-02T11:35:57.816Z,99.99
2023-06-02T11:36:57.791Z,99.21
2023-06-02T11:37:57.759Z,99.21
2023-06-02T11:38:57.748Z,98.72
2023-06-02T11:39:57.727Z,98.49
2023-06-02T11:40:57.723Z,99.79
2023-06-02T11:41:57.724Z,98.92
2023-06-02T11:42:57.694Z,99.16
2023-06-02T11:43:57.725Z,97.42
2023-06-02T11:44:57.661Z,96.46
2023-06-02T11:45:57.658Z,97.72
2023-06-02T11:46:57.667Z,96.66
2023-06-02T11:47:57.634Z,98.24
2023-06-02T11:48:57.649Z,99.16
2023-06-02T11:49:57.602Z,99.99
2023-06-02T11:50:57.580Z,99.98
2023-06-02T11:51:57.656Z,99.93
2023-06-02T11:52:57.550Z,99.99
2023-06-02T11:53:57.537Z,99.50
2023-06-02T11:54:57.586Z,98.49
2023-06-02T11:55:57.646Z,97.62
2023-06-02T11:56:57.505Z,95.89
2023-06-02T11:57:57.476Z,96.32
2023-06-02T11:58:57.462Z,98.00
2023-06-02T11:59:57.447Z,96.80
2023-06-02T12:00:57.436Z,96.17
2023-06-02T12:01:57.501Z,96.03
2023-06-02T12:02:57.544Z,98.05
2023-06-02T12:03:57.508Z,98.58
2023-06-02T12:04:57.514Z,98.10
2023-06-02T12:05:57.487Z,97.04
2023-06-02T12:06:57.367Z,98.72
2023-06-02T12:07:57.371Z,99.26
2023-06-02T12:08:57.374Z,99.50
2023-06-02T12:09:57.328Z,98.10
2023-06-02T12:10:59.912Z,96.75
2023-06-02T12:11:57.292Z,94.78
2023-06-02T12:12:57.285Z,95.50
2023-06-02T12:13:57.254Z,96.46
2023-06-02T12:14:57.245Z,96.99
2023-06-02T12:15:57.228Z,98.58
2023-06-02T12:16:57.277Z,96.75
2023-06-02T12:17:57.232Z,95.59
2023-06-02T12:18:57.187Z,95.89
2023-06-02T12:19:57.170Z,96.46
2023-06-02T12:20:57.161Z,96.17
2023-06-02T12:21:57.232Z,96.22
2023-06-02T12:22:57.142Z,96.70
2023-06-02T12:23:57.129Z,96.89
2023-06-02T12:24:57.107Z,97.62
2023-06-02T12:25:57.097Z,97.19
2023-06-02T12:26:57.092Z,97.47
2023-06-02T12:27:57.064Z,96.56
2023-06-02T12:28:57.053Z,96.75
2023-06-02T12:29:57.040Z,95.79
2023-06-02T12:30:57.041Z,95.40
2023-06-02T12:31:57.009Z,96.22
2023-06-02T12:32:57.052Z,93.71
2023-06-02T12:33:56.986Z,92.36
2023-06-02T12:34:56.988Z,92.21
2023-06-02T12:35:56.960Z,91.09
2023-06-02T12:36:56.949Z,90.77
2023-06-02T12:37:56.968Z,89.41
2023-06-02T12:38:56.921Z,92.07
2023-06-02T12:39:56.921Z,90.86
2023-06-02T12:40:56.926Z,91.11
2023-06-02T12:41:56.885Z,91.83
2023-06-02T12:42:56.870Z,91.88
2023-06-02T12:43:56.866Z,92.60
2023-06-02T12:44:56.851Z,90.77
2023-06-02T12:45:56.826Z,91.44
2023-06-02T12:46:56.816Z,89.51
2023-06-02T12:47:56.829Z,88.10
2023-06-02T12:48:56.805Z,88.01
2023-06-02T12:49:56.779Z,87.58
2023-06-02T12:50:56.778Z,87.92
2023-06-02T12:51:56.795Z,88.02
2023-06-02T12:52:56.745Z,89.22
2023-06-02T12:53:56.747Z,89.55
2023-06-02T12:54:56.723Z,86.31
2023-06-02T12:55:56.704Z,86.98
2023-06-02T12:56:56.703Z,84.31
2023-06-02T12:57:56.710Z,84.16
2023-06-02T12:58:56.732Z,84.35
2023-06-02T12:59:56.677Z,83.40
2023-06-02T13:00:56.653Z,83.59
2023-06-02T13:01:56.684Z,83.16
2023-06-02T13:02:56.770Z,83.37
2023-06-02T13:04:56.619Z,83.95
2023-06-02T13:05:56.649Z,83.95
2023-06-02T13:06:56.589Z,84.05
2023-06-02T13:07:56.576Z,84.63
2023-06-02T13:08:56.562Z,85.68
2023-06-02T13:09:56.549Z,81.75
2023-06-02T13:10:56.552Z,80.84
2023-06-02T13:11:56.525Z,81.30
2023-06-02T13:12:56.520Z,80.34
2023-06-02T13:13:56.526Z,82.28
2023-06-02T13:14:56.493Z,81.27
2023-06-02T13:15:56.575Z,80.40
2023-06-02T13:16:56.506Z,80.34
2023-06-02T13:17:56.468Z,79.70
2023-06-02T13:18:56.456Z,80.90
2023-06-02T13:19:56.438Z,78.92
2023-06-02T13:20:56.454Z,78.69
2023-06-02T13:21:56.444Z,79.76
2023-06-02T13:22:56.410Z,79.41
2023-06-02T13:23:56.408Z,78.56
2023-06-02T13:24:56.476Z,79.33
2023-06-02T13:25:56.461Z,79.87
2023-06-02T13:26:56.382Z,79.10
2023-06-02T13:27:56.363Z,78.91
2023-06-02T13:28:56.381Z,79.78
2023-06-02T13:29:56.343Z,80.84
2023-06-02T13:30:56.333Z,79.60
2023-06-02T13:31:56.372Z,79.60
2023-06-02T13:32:56.336Z,80.59
2023-06-02T13:33:56.303Z,80.34
2023-06-02T13:34:56.313Z,80.24
2023-06-02T13:35:56.291Z,78.36
2023-06-02T13:36:56.285Z,78.94
2023-06-02T13:37:56.284Z,80.30
2023-06-02T13:38:56.284Z,78.41
2023-06-02T13:39:56.252Z,78.83
2023-06-02T13:40:56.248Z,77.65
2023-06-02T13:41:56.247Z,76.85
2023-06-02T13:42:56.277Z,74.71
2023-06-02T13:43:56.215Z,72.71
2023-06-02T13:44:56.213Z,74.07
2023-06-02T13:45:56.245Z,73.88
2023-06-02T13:46:56.215Z,72.75
2023-06-02T13:47:56.245Z,73.62
2023-06-02T13:48:56.198Z,73.18
2023-06-02T13:49:56.167Z,71.46
2023-06-02T13:50:56.163Z,71.62
2023-06-02T13:51:56.151Z,71.93
2023-06-02T13:52:56.148Z,72.38
2023-06-02T13:53:56.146Z,73.27
2023-06-02T13:54:56.129Z,75.44
2023-06-02T13:55:56.119Z,75.63
2023-06-02T13:56:56.115Z,74.96
2023-06-02T13:57:56.107Z,76.31
2023-06-02T13:58:56.119Z,75.42
2023-06-02T13:59:56.099Z,74.84
2023-06-02T14:00:56.178Z,75.34
2023-06-02T14:01:56.123Z,74.86
2023-06-02T14:02:56.166Z,75.54
2023-06-02T14:03:56.169Z,75.28
2023-06-02T14:04:56.078Z,76.42
2023-06-02T14:05:56.051Z,76.54
2023-06-02T14:06:56.054Z,74.34
2023-06-02T14:07:56.042Z,69.90
2023-06-02T14:08:56.042Z,70.75
2023-06-02T14:09:56.076Z,71.91
2023-06-02T14:10:56.021Z,71.33
2023-06-02T14:11:56.017Z,72.04
2023-06-02T14:12:56.013Z,71.69
2023-06-02T14:13:56.007Z,73.05
2023-06-02T14:14:56.001Z,70.49
2023-06-02T14:15:56.040Z,68.67
2023-06-02T14:16:56.020Z,68.38
2023-06-02T14:17:56.023Z,69.03
2023-06-02T14:18:55.978Z,68.77
2023-06-02T14:19:55.994Z,70.36
2023-06-02T14:20:55.970Z,70.77
2023-06-02T14:21:55.987Z,70.92
2023-06-02T14:22:55.965Z,74.12
2023-06-02T14:23:55.946Z,73.93
2023-06-02T14:24:55.947Z,74.06
2023-06-02T14:25:55.953Z,73.54
2023-06-02T14:26:55.959Z,74.87
2023-06-02T14:27:55.939Z,74.81
2023-06-02T14:28:55.920Z,72.55
2023-06-02T14:29:55.964Z,71.61
2023-06-02T14:30:56.025Z,72.52
2023-06-02T14:31:56.022Z,72.20
2023-06-02T14:32:55.940Z,70.55
2023-06-02T14:33:55.890Z,70.35
2023-06-02T14:34:55.892Z,71.77
2023-06-02T14:35:55.881Z,73.71
2023-06-02T14:36:55.896Z,73.77
2023-06-02T14:37:55.886Z,73.60
2023-06-02T14:38:55.897Z,73.73
2023-06-02T14:39:55.863Z,74.58
2023-06-02T14:40:55.863Z,73.74
2023-06-02T14:41:55.882Z,75.47
2023-06-02T14:42:55.846Z,74.18
2023-06-02T14:43:55.837Z,71.03
2023-06-02T14:44:55.838Z,71.03
2023-06-02T14:45:55.828Z,70.45
2023-06-02T14:46:55.959Z,70.42
2023-06-02T14:47:55.844Z,69.22
2023-06-02T14:48:55.816Z,70.06
2023-06-02T14:49:55.807Z,69.54
2023-06-02T14:50:55.808Z,70.54
2023-06-02T14:51:55.801Z,71.90
2023-06-02T14:52:55.811Z,71.78
2023-06-02T14:53:56.158Z,71.13
2023-06-02T14:54:55.860Z,69.87
2023-06-02T14:55:55.985Z,70.39
2023-06-02T14:56:55.809Z,71.30
2023-06-02T14:57:55.787Z,69.87
2023-06-02T14:59:06.738Z,69.20
2023-06-02T14:59:55.782Z,66.73
2023-06-02T15:00:55.797Z,68.38
2023-06-02T15:01:55.790Z,66.79
2023-06-02T15:02:55.829Z,69.10
2023-06-02T15:03:55.873Z,66.08
2023-06-02T15:04:55.791Z,66.66
2023-06-02T15:05:55.742Z,66.56
2023-06-02T15:06:55.746Z,67.83
2023-06-02T15:07:55.733Z,69.02
2023-06-02T15:08:55.739Z,70.84
2023-06-02T15:09:55.738Z,71.33
2023-06-02T15:10:55.752Z,70.36
2023-06-02T15:11:55.722Z,68.70
2023-06-02T15:12:55.717Z,69.90
2023-06-02T15:13:55.768Z,68.90
2023-06-02T15:14:55.747Z,68.79
2023-06-02T15:15:55.707Z,71.42
2023-06-02T15:16:55.738Z,70.97
2023-06-02T15:17:55.737Z,70.29
2023-06-02T15:18:57.113Z,69.94
2023-06-02T15:19:55.737Z,71.04
2023-06-02T15:20:55.746Z,69.29
2023-06-02T15:21:55.738Z,69.54
2023-06-02T15:22:55.678Z,69.90
2023-06-02T15:23:55.680Z,72.31
2023-06-02T15:24:55.674Z,73.86
2023-06-02T15:25:55.673Z,73.86
2023-06-02T15:26:55.702Z,74.64
2023-06-02T15:27:55.672Z,75.13
2023-06-02T15:28:55.723Z,74.64
2023-06-02T15:29:55.690Z,74.93
2023-06-02T15:30:55.665Z,74.60
2023-06-02T15:31:55.700Z,75.67
2023-06-02T15:32:55.666Z,77.12
2023-06-02T15:33:55.649Z,76.93
2023-06-02T15:34:55.670Z,77.82
2023-06-02T15:35:55.695Z,75.78
2023-06-02T15:36:55.661Z,76.10
2023-06-02T15:37:55.652Z,76.99
2023-06-02T15:38:55.632Z,77.42
2023-06-02T15:39:55.626Z,77.20
2023-06-02T15:40:55.624Z,77.29
2023-06-02T15:42:53.884Z,77.82
2023-06-02T15:43:53.877Z,78.81
2023-06-02T15:44:53.933Z,79.16
2023-06-02T15:45:53.868Z,79.97
2023-06-02T15:46:53.899Z,79.97
2023-06-02T15:47:53.925Z,79.93
2023-06-02T15:48:53.880Z,79.64
2023-06-02T15:49:53.876Z,80.13
2023-06-02T15:50:53.842Z,80.80
2023-06-02T15:51:53.880Z,81.43
2023-06-02T15:52:53.849Z,80.30
2023-06-02T15:53:53.845Z,80.32
2023-06-02T15:54:53.843Z,80.57
2023-06-02T15:55:53.838Z,81.29
2023-06-02T15:56:53.852Z,81.29
2023-06-02T15:57:53.824Z,80.75
2023-06-02T15:58:53.835Z,80.94
2023-06-02T15:59:53.831Z,80.55
2023-06-02T16:00:53.798Z,80.40
2023-06-02T16:01:53.850Z,80.58
2023-06-02T16:04:08.424Z,79.53
2023-06-02T16:05:08.403Z,80.98
2023-06-02T16:06:08.390Z,81.57
2023-06-02T16:07:53.080Z,82.45
2023-06-02T16:08:53.052Z,83.27
2023-06-02T16:09:53.006Z,82.24
2023-06-02T16:10:53.008Z,81.65
2023-06-02T16:11:53.000Z,79.86
2023-06-02T16:20:17.882Z,88.68
2023-06-02T16:21:17.867Z,87.95
2023-06-02T16:22:17.921Z,87.32
2023-06-02T16:23:17.852Z,85.96
2023-06-02T16:24:17.868Z,85.17
2023-06-02T16:25:18.005Z,85.11
2023-06-02T16:26:17.985Z,84.12
2023-06-02T16:27:17.831Z,82.28
2023-06-02T16:28:39.659Z,83.52
2023-06-02T16:29:39.671Z,83.05
2023-06-02T16:30:39.678Z,83.58
2023-06-02T16:31:39.662Z,84.05
2023-06-02T16:32:39.644Z,83.33
2023-06-02T16:33:39.643Z,83.58
2023-06-02T16:34:43.678Z,84.27
2023-06-02T16:35:43.644Z,84.79
2023-06-02T16:52:40.989Z,90.57
2023-06-02T16:57:02.130Z,88.53
2023-06-02T17:01:03.744Z,88.29
2023-06-02T17:02:03.394Z,87.37
2023-06-02T17:03:03.403Z,86.49
2023-06-02T17:04:03.404Z,85.47
2023-06-02T17:05:03.353Z,84.55
2023-06-02T17:06:03.382Z,82.07
2023-06-02T17:08:34.911Z,81.13
2023-06-02T17:09:34.875Z,81.00
2023-06-02T17:10:34.855Z,81.29
2023-06-02T17:11:34.852Z,81.45
2023-06-02T17:12:34.845Z,82.80
2023-06-02T17:13:34.844Z,81.93
2023-06-02T17:14:34.839Z,82.70
2023-06-02T17:15:34.850Z,81.98
2023-06-02T17:16:34.867Z,83.44
2023-06-02T17:17:34.832Z,82.37
2023-06-02T17:18:34.805Z,82.12
2023-06-02T17:19:34.803Z,81.50
2023-06-02T17:20:34.786Z,81.85
2023-06-02T17:21:34.842Z,82.33
2023-06-02T17:23:17.708Z,84.67
2023-06-02T17:24:17.706Z,85.05
